Stolt Surf — ZCSR3 — position and weather

sailwx.info

Track history (hours):
 
Tides and Currents Weather Stations Pressure Air Temp Water Temp Dewpoint Dewpoint Depression Visibility Wind Speed Wind Dir Waves Ship Positions

Stolt Surf

Last reported at 2014-Aug-22 18:22 UTC. Time now 2014-Aug-27 23:23 UTC.
Position N 29°22' W 094°53'.

Length 163 m; draft 7.2 m.

Type: Ship. MMSI: 319545000.

Date/timePositionNaut miles runAvg speedWind from/ knotsBaromVisibWave heightAir tempDewpointWater temp
2014-Aug-22 18:22N 29°22' W 094°53'  
2014-Aug-20 08:30N 29°21' W 094°47'1010.7
2014-Aug-20 07:33N 29°30' W 094°52'9 9.5
2014-Aug-20 06:33N 29°37' W 095°00'1 0.8
2014-Aug-20 05:30N 29°37' W 095°01'0 0.0
2014-Aug-20 04:27N 29°37' W 095°01'0 0.0
2014-Aug-20 03:27N 29°37' W 095°01'0 0.0
2014-Aug-20 02:33N 29°37' W 095°01'0 0.0
2014-Aug-20 01:33N 29°37' W 095°01'0 0.0
2014-Aug-20 00:33N 29°37' W 095°01'0 0.0
2014-Aug-19 23:33N 29°37' W 095°01'0 0.0
2014-Aug-19 22:27N 29°37' W 095°01'0 0.0
2014-Aug-19 21:33N 29°37' W 095°01'0 0.0
2014-Aug-19 20:33N 29°37' W 095°01'0 0.0
2014-Aug-19 19:27N 29°37' W 095°01'0 0.0
2014-Aug-19 18:30N 29°37' W 095°01'0 0.0
2014-Aug-19 17:33N 29°37' W 095°01'0 0.0
2014-Aug-19 16:33N 29°37' W 095°01'0 0.0
2014-Aug-19 15:33N 29°37' W 095°01'0 0.0
2014-Aug-19 14:24N 29°37' W 095°01'0 0.0
2014-Aug-19 13:33N 29°37' W 095°01'0 0.0
2014-Aug-19 12:33N 29°37' W 095°01'0 0.0
2014-Aug-19 11:03N 29°37' W 095°01'0 0.0
2014-Aug-19 10:03N 29°37' W 095°01'0 0.0
2014-Aug-19 09:21N 29°37' W 095°01'0 0.0
2014-Aug-19 08:33N 29°37' W 095°01'0 0.0
2014-Aug-19 07:30N 29°37' W 095°01'0 0.0
2014-Aug-19 06:33N 29°37' W 095°01'0 0.0
2014-Aug-19 05:33N 29°37' W 095°01'0 0.0
2014-Aug-19 04:30N 29°37' W 095°01'0 0.0
2014-Aug-19 03:33N 29°37' W 095°01'0 0.0
2014-Aug-19 02:33N 29°37' W 095°01'0 0.0
2014-Aug-19 01:33N 29°37' W 095°01'0 0.0
2014-Aug-19 00:33N 29°37' W 095°01'0 0.0
2014-Aug-18 23:33N 29°37' W 095°01'0 0.0
2014-Aug-18 22:33N 29°37' W 095°01'5 4.6
2014-Aug-18 21:33N 29°35' W 094°56'1211.8
2014-Aug-18 20:33N 29°25' W 094°50'4 4.0
2014-Aug-18 19:28N 29°21' W 094°47'1011.6
2014-Aug-18 18:33N 29°30' W 094°52'7 6.8
2014-Aug-18 17:33N 29°36' W 094°57'9 9.3
2014-Aug-18 16:33N 29°44' W 095°03'6 6.4
2014-Aug-18 15:33N 29°45' W 095°10'5 4.8
2014-Aug-18 14:33N 29°43' W 095°15'1 0.6
2014-Aug-18 13:32N 29°44' W 095°16'0 0.0
2014-Aug-18 12:32N 29°44' W 095°16'0 0.0
2014-Aug-18 11:32N 29°44' W 095°16'0 0.0
2014-Aug-18 10:32N 29°44' W 095°16'0 0.0
2014-Aug-18 09:29N 29°44' W 095°16'0 0.0
2014-Aug-18 08:29N 29°44' W 095°16'0 0.0
2014-Aug-18 07:29N 29°44' W 095°16'0 0.0
2014-Aug-18 06:32N 29°44' W 095°16'0 0.0
2014-Aug-18 05:29N 29°44' W 095°16'0 0.0
2014-Aug-18 04:32N 29°44' W 095°16'0 0.0
2014-Aug-18 03:32N 29°44' W 095°16'0 0.0
2014-Aug-18 02:32N 29°44' W 095°16'0 0.0
2014-Aug-18 01:32N 29°44' W 095°16'0 0.0
2014-Aug-18 00:29N 29°44' W 095°16'25 4.2
2014-Aug-17 18:33N 29°30' W 094°52'10 1.6
2014-Aug-17 12:07N 29°21' W 094°45'  
Track history (hours):
 
Tides and Currents Weather Stations Pressure Air Temp Water Temp Dewpoint Dewpoint Depression Visibility Wind Speed Wind Dir Waves Ship Positions

Stolt Surf

Last reported at 2014-Aug-22 18:22 UTC. Time now 2014-Aug-27 23:23 UTC.
Position N 29°22' W 094°53'.

Length 163 m; draft 7.2 m.

Type: Ship. MMSI: 319545000.

Date/timePositionNaut miles runAvg speedWind from/ knotsBaromVisibWave heightAir tempDewpointWater temp
2014-Aug-22 18:22N 29°22' W 094°53'  
2014-Aug-20 08:30N 29°21' W 094°47'1010.7
2014-Aug-20 07:33N 29°30' W 094°52'9 9.5
2014-Aug-20 06:33N 29°37' W 095°00'1 0.8
2014-Aug-20 05:30N 29°37' W 095°01'0 0.0
2014-Aug-20 04:27N 29°37' W 095°01'0 0.0
2014-Aug-20 03:27N 29°37' W 095°01'0 0.0
2014-Aug-20 02:33N 29°37' W 095°01'0 0.0
2014-Aug-20 01:33N 29°37' W 095°01'0 0.0
2014-Aug-20 00:33N 29°37' W 095°01'0 0.0
2014-Aug-19 23:33N 29°37' W 095°01'0 0.0
2014-Aug-19 22:27N 29°37' W 095°01'0 0.0
2014-Aug-19 21:33N 29°37' W 095°01'0 0.0
2014-Aug-19 20:33N 29°37' W 095°01'0 0.0
2014-Aug-19 19:27N 29°37' W 095°01'0 0.0
2014-Aug-19 18:30N 29°37' W 095°01'0 0.0
2014-Aug-19 17:33N 29°37' W 095°01'0 0.0
2014-Aug-19 16:33N 29°37' W 095°01'0 0.0
2014-Aug-19 15:33N 29°37' W 095°01'0 0.0
2014-Aug-19 14:24N 29°37' W 095°01'0 0.0
2014-Aug-19 13:33N 29°37' W 095°01'0 0.0
2014-Aug-19 12:33N 29°37' W 095°01'0 0.0
2014-Aug-19 11:03N 29°37' W 095°01'0 0.0
2014-Aug-19 10:03N 29°37' W 095°01'0 0.0
2014-Aug-19 09:21N 29°37' W 095°01'0 0.0
2014-Aug-19 08:33N 29°37' W 095°01'0 0.0
2014-Aug-19 07:30N 29°37' W 095°01'0 0.0
2014-Aug-19 06:33N 29°37' W 095°01'0 0.0
2014-Aug-19 05:33N 29°37' W 095°01'0 0.0
2014-Aug-19 04:30N 29°37' W 095°01'0 0.0
2014-Aug-19 03:33N 29°37' W 095°01'0 0.0
2014-Aug-19 02:33N 29°37' W 095°01'0 0.0
2014-Aug-19 01:33N 29°37' W 095°01'0 0.0
2014-Aug-19 00:33N 29°37' W 095°01'0 0.0
2014-Aug-18 23:33N 29°37' W 095°01'0 0.0
2014-Aug-18 22:33N 29°37' W 095°01'5 4.6
2014-Aug-18 21:33N 29°35' W 094°56'1211.8
2014-Aug-18 20:33N 29°25' W 094°50'4 4.0
2014-Aug-18 19:28N 29°21' W 094°47'1011.6
2014-Aug-18 18:33N 29°30' W 094°52'7 6.8
2014-Aug-18 17:33N 29°36' W 094°57'9 9.3
2014-Aug-18 16:33N 29°44' W 095°03'6 6.4
2014-Aug-18 15:33N 29°45' W 095°10'5 4.8
2014-Aug-18 14:33N 29°43' W 095°15'1 0.6
2014-Aug-18 13:32N 29°44' W 095°16'0 0.0
2014-Aug-18 12:32N 29°44' W 095°16'0 0.0
2014-Aug-18 11:32N 29°44' W 095°16'0 0.0
2014-Aug-18 10:32N 29°44' W 095°16'0 0.0
2014-Aug-18 09:29N 29°44' W 095°16'0 0.0
2014-Aug-18 08:29N 29°44' W 095°16'0 0.0
2014-Aug-18 07:29N 29°44' W 095°16'0 0.0
2014-Aug-18 06:32N 29°44' W 095°16'0 0.0
2014-Aug-18 05:29N 29°44' W 095°16'0 0.0
2014-Aug-18 04:32N 29°44' W 095°16'0 0.0
2014-Aug-18 03:32N 29°44' W 095°16'0 0.0
2014-Aug-18 02:32N 29°44' W 095°16'0 0.0
2014-Aug-18 01:32N 29°44' W 095°16'0 0.0
2014-Aug-18 00:29N 29°44' W 095°16'25 4.2
2014-Aug-17 18:33N 29°30' W 094°52'10 1.6
2014-Aug-17 12:07N 29°21' W 094°45'  

Dump ship's entire track history